createdAt,value
2022-09-15T00:00:38.867Z,100730.44
2022-09-15T00:06:25.602Z,100727.13
2022-09-15T00:12:12.224Z,100738.44
2022-09-15T00:17:58.849Z,100744.09
2022-09-15T00:23:46.140Z,100736.59
2022-09-15T00:29:32.957Z,100739.25
2022-09-15T00:35:19.709Z,100740.13
2022-09-15T00:41:08.470Z,100747.56
2022-09-15T00:47:17.752Z,100747.63
2022-09-15T00:53:08.846Z,100760.72
2022-09-15T00:59:01.361Z,100758.66
2022-09-15T01:04:49.572Z,100756.44
2022-09-15T01:10:40.083Z,100763.97
2022-09-15T01:16:26.691Z,100767.81
2022-09-15T01:22:25.626Z,100765.25
2022-09-15T01:28:12.294Z,100768.00
2022-09-15T01:34:06.464Z,100780.13
2022-09-15T01:39:56.610Z,100773.16
2022-09-15T01:45:45.380Z,100761.22
2022-09-15T01:51:34.782Z,100770.44
2022-09-15T01:57:21.837Z,100777.84
2022-09-15T02:03:18.897Z,100771.41
2022-09-15T02:09:17.389Z,100752.25
2022-09-15T02:15:08.680Z,100770.56
2022-09-15T02:21:08.074Z,100767.34
2022-09-15T02:26:57.626Z,100771.31
2022-09-15T02:32:51.382Z,100770.09
2022-09-15T02:38:43.970Z,100768.22
2022-09-15T02:44:31.063Z,100769.44
2022-09-15T02:50:18.957Z,100772.88
2022-09-15T02:56:06.592Z,100765.72
2022-09-15T03:01:53.455Z,100764.09
2022-09-15T03:07:40.998Z,100764.69
2022-09-15T03:13:27.612Z,100760.06
2022-09-15T03:19:17.321Z,100753.97
2022-09-15T03:25:07.777Z,100762.16
2022-09-15T03:30:55.031Z,100768.97
2022-09-15T03:36:41.690Z,100780.63
2022-09-15T03:42:28.241Z,100786.34
2022-09-15T03:48:14.945Z,100789.72
2022-09-15T03:54:01.695Z,100777.69
2022-09-15T03:59:48.365Z,100782.91
2022-09-15T04:05:36.503Z,100796.75
2022-09-15T04:11:23.225Z,100788.75
2022-09-15T04:17:10.779Z,100788.91
2022-09-15T04:22:57.410Z,100786.88
2022-09-15T04:28:43.957Z,100794.88
2022-09-15T04:34:30.597Z,100786.97
2022-09-15T04:40:17.458Z,100791.59
2022-09-15T04:46:04.577Z,100793.44
2022-09-15T04:51:55.231Z,100794.81
2022-09-15T04:57:41.842Z,100798.59
2022-09-15T05:03:28.572Z,100800.53
2022-09-15T05:09:15.334Z,100792.16
2022-09-15T05:15:01.990Z,100804.91
2022-09-15T05:20:48.770Z,100811.28
2022-09-15T05:26:35.444Z,100804.50
2022-09-15T05:32:22.146Z,100821.91
2022-09-15T05:38:08.925Z,100820.88
2022-09-15T05:43:57.316Z,100824.06
2022-09-15T05:49:44.098Z,100829.19
2022-09-15T05:55:31.003Z,100829.94
2022-09-15T06:01:23.697Z,100839.16
2022-09-15T06:07:10.576Z,100843.97
2022-09-15T06:12:57.313Z,100866.47
2022-09-15T06:18:44.197Z,100865.78
2022-09-15T06:24:36.682Z,100864.91
2022-09-15T06:37:19.423Z,100873.97
2022-09-15T06:43:06.450Z,100886.97
2022-09-15T06:48:57.985Z,100887.72
2022-09-15T06:54:56.069Z,100905.13
2022-09-15T07:00:49.408Z,100913.28
2022-09-15T07:06:38.795Z,100905.00
2022-09-15T07:12:25.660Z,100913.66
2022-09-15T07:18:12.535Z,100914.09
2022-09-15T07:24:03.714Z,100912.81
2022-09-15T07:29:54.984Z,100918.31
2022-09-15T07:59:43.407Z,100936.69
2022-09-15T08:05:38.682Z,100943.63
2022-09-15T08:11:29.311Z,100935.91
2022-09-15T08:17:18.718Z,100938.94
2022-09-15T08:23:05.418Z,100949.09
2022-09-15T08:28:52.694Z,100951.56
2022-09-15T08:34:39.702Z,100945.97
2022-09-15T08:40:34.756Z,100951.09
2022-09-15T08:46:27.811Z,100955.22
2022-09-15T08:52:25.918Z,100950.94
2022-09-15T08:58:25.348Z,100935.16
2022-09-15T09:04:26.572Z,100944.56
2022-09-15T09:10:25.098Z,100939.41
2022-09-15T09:16:31.370Z,100940.50
2022-09-15T09:22:24.243Z,100936.56
2022-09-15T09:28:24.148Z,100949.00
2022-09-15T09:34:35.460Z,100940.03
2022-09-15T09:40:22.937Z,100932.13
2022-09-15T09:46:15.811Z,100929.28
2022-09-15T09:52:04.637Z,100950.34
2022-09-15T09:57:51.562Z,100943.59
2022-09-15T10:03:38.905Z,100950.78
2022-09-15T10:09:28.757Z,100956.84
2022-09-15T10:15:24.856Z,100956.09
2022-09-15T10:21:14.897Z,100952.31
2022-09-15T10:27:17.022Z,100949.44
2022-09-15T10:33:24.307Z,100937.94
2022-09-15T10:39:36.182Z,100944.59
2022-09-15T10:45:34.027Z,100940.72
2022-09-15T10:52:06.162Z,100950.78
2022-09-15T10:58:20.442Z,100951.69
2022-09-15T11:04:11.169Z,100940.03
2022-09-15T11:10:20.437Z,100950.50
2022-09-15T11:16:41.164Z,100949.03
2022-09-15T11:22:59.476Z,100947.34
2022-09-15T11:28:59.517Z,100954.38
2022-09-15T11:42:36.632Z,100952.13
2022-09-15T14:17:02.024Z,100934.19
2022-09-15T14:31:35.501Z,100932.34
2022-09-15T15:17:31.110Z,100927.34
2022-09-15T15:24:05.196Z,100935.44
2022-09-15T15:31:03.216Z,100932.13
2022-09-15T15:51:42.855Z,100930.69
2022-09-15T15:57:36.465Z,100942.72
2022-09-15T16:03:24.615Z,100941.81
2022-09-15T16:09:14.832Z,100940.47
2022-09-15T16:15:59.951Z,100942.16
2022-09-15T16:21:49.387Z,100945.06
2022-09-15T16:27:58.938Z,100952.56
2022-09-15T16:33:51.354Z,100975.53
2022-09-15T16:39:38.233Z,100977.31
2022-09-15T16:45:47.088Z,100972.91
2022-09-15T16:51:33.885Z,100978.78
2022-09-15T16:57:20.905Z,100980.31
2022-09-15T17:18:17.860Z,100987.34
2022-09-15T17:24:04.762Z,100989.88
2022-09-15T17:38:21.065Z,100989.53
2022-09-15T17:44:15.218Z,100996.81
2022-09-15T17:50:03.324Z,101000.63
2022-09-15T17:56:04.902Z,101008.84
2022-09-15T18:02:23.972Z,101016.72
2022-09-15T18:08:21.946Z,101007.88
2022-09-15T18:14:35.697Z,101010.50
2022-09-15T18:20:25.948Z,101012.13
2022-09-15T18:26:13.977Z,101015.41
2022-09-15T18:32:04.327Z,101021.88
2022-09-15T18:37:56.690Z,101025.97
2022-09-15T18:43:43.954Z,101015.91
2022-09-15T18:49:30.837Z,101033.84
2022-09-15T18:55:21.086Z,101038.06
2022-09-15T19:01:08.023Z,101051.81
2022-09-15T19:06:54.899Z,101050.56
2022-09-15T19:12:41.972Z,101054.63
2022-09-15T19:18:29.808Z,101063.94
2022-09-15T19:24:17.357Z,101071.97
2022-09-15T19:30:13.237Z,101073.06
2022-09-15T19:36:24.199Z,101073.84
2022-09-15T19:48:05.816Z,101079.38
2022-09-15T19:53:57.539Z,101083.94
2022-09-15T20:06:06.917Z,101099.38
2022-09-15T20:11:54.166Z,101092.28
2022-09-15T20:17:52.879Z,101093.72
2022-09-15T20:23:47.563Z,101103.75
2022-09-15T20:29:37.063Z,101087.16
2022-09-15T20:35:35.534Z,101095.28
2022-09-15T20:41:46.663Z,101090.47
2022-09-15T20:47:40.831Z,101099.81
2022-09-15T20:53:39.138Z,101098.56
2022-09-15T20:59:26.121Z,101117.63
2022-09-15T21:05:23.152Z,101120.16
2022-09-15T21:11:20.942Z,101127.06
2022-09-15T21:17:17.972Z,101132.28
2022-09-15T21:23:09.976Z,101143.56
2022-09-15T21:28:57.695Z,101141.34
2022-09-15T21:34:49.914Z,101133.03
2022-09-15T21:40:36.903Z,101141.00
2022-09-15T21:46:26.629Z,101146.28
2022-09-15T21:52:13.520Z,101158.16
2022-09-15T21:58:00.313Z,101154.94
2022-09-15T22:03:54.367Z,101173.09
2022-09-15T22:09:41.108Z,101172.13
2022-09-15T22:15:48.893Z,101175.53
2022-09-15T22:21:41.786Z,101180.66
2022-09-15T22:27:30.817Z,101180.28
2022-09-15T22:33:17.726Z,101180.19
2022-09-15T22:39:05.717Z,101184.28
2022-09-15T22:44:52.869Z,101189.00
2022-09-15T22:50:39.601Z,101189.09
2022-09-15T22:56:26.849Z,101193.22
2022-09-15T23:02:13.889Z,101194.19
2022-09-15T23:08:00.757Z,101189.31
2022-09-15T23:13:47.855Z,101187.97
2022-09-15T23:19:34.735Z,101193.28
2022-09-15T23:25:21.429Z,101207.19
2022-09-15T23:31:11.888Z,101202.22
2022-09-15T23:36:58.745Z,101204.56
2022-09-15T23:42:45.393Z,101209.63
2022-09-15T23:48:32.544Z,101200.91
2022-09-15T23:54:19.448Z,101206.69
